»·PEaware :: N172EL KBUR-KLAS

N172EL :: KBUR-KLAS

FLIGHT INFORMATION

Flight Status: Arrived
Operator: Privately registered:
United States
More flights under this callsign
Pilot: William W. (20687)
Aircraft: CESSNA 172 SKYHAWK
(C172)
More flights by this aircraft type
Origin: KBUR Bob Hope-Burbank
United States
Destination: KLAS McCarran Intl
United States
More flights between these airports :: More routes between these airports
Route: +VNY3 DAG CRESO4
File this flight plan on PilotEdge
Remarks: I-5 to LAS
Altitude:
(Current/Filed)
11,000ft
Speed:
(Current/Filed)
115kts
Departed: 11-Oct-18 11:36 AM
Arrived: 11-Oct-18 01:32 PM
Distance/Time
Traveled:
194nm/1:56
Distance/Time
To Go:
Arrived

Flight Plot

Page will automatically refresh every two minutes.

Flight plan parsing failed; only flown route is shown


Map Options




Map Legend


Flown Route
Filed Route
Departure Airport
Arrival Airport
Navaid (VOR, NDB)
Fix

Horizontal Profiles

Position Reports

Time Latitude Longitude Heading Altitude Ground
Speed
11-Oct-18 11:10 34.210739 -118.357948 257 758ft 0kts
11-Oct-18 11:11 34.210739 -118.357948 257 758ft 0kts
11-Oct-18 11:12 34.210739 -118.357947 257 758ft 0kts
11-Oct-18 11:13 34.210739 -118.357947 257 758ft 0kts
11-Oct-18 11:14 34.210739 -118.357947 257 758ft 0kts
11-Oct-18 11:15 34.210739 -118.357947 257 758ft 0kts
11-Oct-18 11:16 34.210739 -118.357947 257 758ft 0kts
11-Oct-18 11:17 34.200203 -118.358746 263 721ft 0kts
11-Oct-18 11:18 34.200203 -118.358746 263 721ft 0kts
11-Oct-18 11:19 34.200203 -118.358746 263 721ft 0kts
11-Oct-18 11:20 34.200203 -118.358746 263 721ft 0kts
11-Oct-18 11:21 34.200203 -118.358746 263 721ft 0kts
11-Oct-18 11:22 34.200203 -118.358746 263 721ft 0kts
11-Oct-18 11:23 34.200203 -118.358746 263 721ft 0kts
11-Oct-18 11:24 34.200203 -118.358746 263 721ft 0kts
11-Oct-18 11:25 34.200203 -118.358746 263 721ft 0kts
11-Oct-18 11:26 34.200203 -118.358746 263 721ft 0kts
11-Oct-18 11:27 34.200203 -118.358746 263 721ft 0kts
11-Oct-18 11:28 34.200203 -118.358746 263 721ft 0kts
11-Oct-18 11:29 34.200203 -118.358746 263 721ft 0kts
11-Oct-18 11:30 34.200203 -118.358746 263 721ft 0kts
11-Oct-18 11:31 34.200198 -118.358791 262 721ft 2kts
11-Oct-18 11:32 34.201359 -118.359553 342 727ft 9kts
11-Oct-18 11:33 34.204916 -118.359510 358 738ft 17kts
11-Oct-18 11:34 34.206661 -118.360045 345 745ft 11kts
11-Oct-18 11:35 34.209492 -118.360741 20 759ft 0kts
11-Oct-18 11:36 34.209492 -118.360741 20 759ft 0kts
11-Oct-18 11:37 34.209498 -118.360737 24 759ft 0kts
11-Oct-18 11:38 34.201640 -118.357355 164 1000ft 68kts
11-Oct-18 11:39 34.184948 -118.362963 223 1873ft 76kts
11-Oct-18 11:40 34.167933 -118.382370 224 2716ft 86kts
11-Oct-18 11:41 34.150497 -118.401972 224 3582ft 86kts
11-Oct-18 11:42 34.131310 -118.423385 224 3976ft 107kts
11-Oct-18 11:43 34.122440 -118.453782 314 4111ft 106kts
11-Oct-18 11:44 34.144353 -118.459292 350 5126ft 77kts
11-Oct-18 11:45 34.165677 -118.461735 351 5869ft 77kts
11-Oct-18 11:46 34.187234 -118.463972 351 6566ft 78kts
11-Oct-18 11:47 34.209158 -118.466023 351 7226ft 80kts
11-Oct-18 11:48 34.231445 -118.467885 351 7849ft 81kts
11-Oct-18 11:49 34.254176 -118.469599 351 8437ft 83kts
11-Oct-18 11:50 34.277218 -118.471177 351 8994ft 84kts
11-Oct-18 11:51 34.300889 -118.469306 359 9522ft 86kts
11-Oct-18 11:52 34.324691 -118.466719 358 10024ft 87kts
11-Oct-18 11:53 34.348877 -118.464171 358 10491ft 88kts
11-Oct-18 11:54 34.373568 -118.461582 358 10932ft 90kts
11-Oct-18 11:55 34.395590 -118.440714 48 11036ft 122kts
11-Oct-18 11:56 34.417100 -118.406569 49 11036ft 131kts
11-Oct-18 11:57 34.439318 -118.371206 49 11041ft 132kts
11-Oct-18 11:58 34.461635 -118.335654 49 11022ft 133kts
11-Oct-18 11:59 34.483931 -118.300100 50 11019ft 131kts
11-Oct-18 12:00 34.506111 -118.264736 50 11008ft 132kts
11-Oct-18 12:01 34.528367 -118.229203 50 11007ft 132kts
11-Oct-18 12:02 34.550747 -118.193403 50 10995ft 133kts
11-Oct-18 12:03 34.573082 -118.157654 50 10993ft 133kts
11-Oct-18 12:04 34.595339 -118.121999 50 10993ft 133kts
11-Oct-18 12:05 34.617795 -118.086011 50 10991ft 133kts
11-Oct-18 12:06 34.634137 -118.046807 84 10993ft 134kts
11-Oct-18 12:07 34.638405 -118.001744 82 10991ft 134kts
11-Oct-18 12:08 34.643307 -117.956918 82 10988ft 133kts
11-Oct-18 12:09 34.648200 -117.912269 82 10987ft 133kts
11-Oct-18 12:10 34.653073 -117.867443 82 10979ft 134kts
11-Oct-18 12:11 34.657141 -117.830038 82 10971ft 133kts
11-Oct-18 12:12 34.662779 -117.778091 82 10980ft 133kts
11-Oct-18 12:13 34.669499 -117.741516 69 10977ft 134kts
11-Oct-18 12:14 34.681058 -117.698403 71 10976ft 134kts
11-Oct-18 12:15 34.694071 -117.647780 71 10982ft 134kts
11-Oct-18 12:16 34.703317 -117.611724 71 10981ft 134kts
11-Oct-18 12:17 34.714450 -117.568187 71 10979ft 134kts
11-Oct-18 12:18 34.725545 -117.524772 71 10976ft 134kts
11-Oct-18 12:19 34.736598 -117.481484 71 10972ft 134kts
11-Oct-18 12:20 34.747613 -117.438182 71 10972ft 133kts
11-Oct-18 12:21 34.758581 -117.395060 71 10972ft 133kts
11-Oct-18 12:22 34.769567 -117.351827 71 10967ft 133kts
11-Oct-18 12:23 34.780379 -117.309132 71 11009ft 132kts
11-Oct-18 12:24 34.791235 -117.266224 71 11006ft 133kts
11-Oct-18 12:25 34.802165 -117.222995 71 11005ft 133kts
11-Oct-18 12:26 34.813041 -117.179795 71 11002ft 133kts
11-Oct-18 12:27 34.823935 -117.136543 71 10989ft 134kts
11-Oct-18 12:28 34.834805 -117.093339 71 10989ft 133kts
11-Oct-18 12:29 34.845691 -117.049905 72 10989ft 134kts
11-Oct-18 12:30 34.861276 -117.009388 71 10985ft 134kts
11-Oct-18 12:31 34.878782 -116.972954 99 10987ft 130kts
11-Oct-18 12:32 34.883719 -116.928650 77 10983ft 133kts
11-Oct-18 12:33 34.893547 -116.885309 77 10982ft 132kts
11-Oct-18 12:34 34.903402 -116.842245 77 10978ft 131kts
11-Oct-18 12:35 34.913204 -116.799413 77 10977ft 130kts
11-Oct-18 12:36 34.922910 -116.756868 77 10977ft 130kts
11-Oct-18 12:37 34.932588 -116.714329 77 10972ft 129kts
11-Oct-18 12:38 34.942188 -116.672116 77 10972ft 129kts
11-Oct-18 12:39 34.951746 -116.629800 77 10970ft 129kts
11-Oct-18 12:40 34.961241 -116.587448 77 10968ft 129kts
11-Oct-18 12:41 34.976641 -116.547760 66 10964ft 130kts
11-Oct-18 12:42 34.992862 -116.508426 65 10960ft 129kts
11-Oct-18 12:43 35.009082 -116.469647 65 10967ft 127kts
11-Oct-18 12:44 35.025034 -116.431501 64 10963ft 124kts
11-Oct-18 12:45 35.041567 -116.395043 52 10963ft 124kts
11-Oct-18 12:46 35.059610 -116.359366 63 10962ft 123kts
11-Oct-18 12:47 35.075169 -116.322401 65 11001ft 122kts
11-Oct-18 12:48 35.090702 -116.285095 65 10997ft 123kts
11-Oct-18 12:49 35.106094 -116.248079 65 11017ft 121kts
11-Oct-18 12:50 35.121471 -116.211029 65 11018ft 123kts
11-Oct-18 12:51 35.136886 -116.173871 65 11015ft 122kts
11-Oct-18 12:52 35.152214 -116.136906 65 11014ft 122kts
11-Oct-18 12:53 35.167574 -116.099769 65 11011ft 122kts
11-Oct-18 12:54 35.182917 -116.062642 65 11009ft 122kts
11-Oct-18 12:55 35.198231 -116.025582 65 11009ft 122kts
11-Oct-18 12:56 35.213542 -115.988509 65 11005ft 122kts
11-Oct-18 12:57 35.228868 -115.951279 65 11006ft 123kts
11-Oct-18 12:58 35.244291 -115.913807 65 11003ft 123kts
11-Oct-18 12:59 35.259714 -115.876308 65 10990ft 123kts
11-Oct-18 13:00 35.275177 -115.838654 65 10991ft 124kts
11-Oct-18 13:01 35.290749 -115.800676 65 10988ft 125kts
11-Oct-18 13:02 35.310850 -115.767827 16 10985ft 128kts
11-Oct-18 13:03 35.340780 -115.745961 47 10982ft 126kts
11-Oct-18 13:04 35.365198 -115.714911 48 10975ft 126kts
11-Oct-18 13:05 35.388610 -115.682971 51 10975ft 126kts
11-Oct-18 13:06 35.411489 -115.650901 51 11001ft 125kts
11-Oct-18 13:07 35.434386 -115.618725 51 11020ft 124kts
11-Oct-18 13:08 35.457244 -115.586575 51 11024ft 125kts
11-Oct-18 13:09 35.480230 -115.554227 51 11024ft 125kts
11-Oct-18 13:10 35.506733 -115.526057 46 11024ft 126kts
11-Oct-18 13:11 35.537999 -115.501069 31 10612ft 141kts
11-Oct-18 13:12 35.571612 -115.477955 30 10030ft 138kts
11-Oct-18 13:13 35.610770 -115.450891 31 9335ft 139kts
11-Oct-18 13:14 35.638764 -115.431471 31 8827ft 137kts
11-Oct-18 13:15 35.671422 -115.408778 31 8208ft 135kts
11-Oct-18 13:16 35.704021 -115.385985 31 7576ft 135kts
11-Oct-18 13:17 35.735705 -115.361620 36 7019ft 129kts
11-Oct-18 13:18 35.765363 -115.336600 36 6865ft 135kts
11-Oct-18 13:19 35.796876 -115.309806 36 6351ft 139kts
11-Oct-18 13:20 35.828254 -115.283032 36 6029ft 130kts
11-Oct-18 13:21 35.859273 -115.256524 36 5545ft 140kts
11-Oct-18 13:22 35.891279 -115.229007 36 5041ft 138kts
11-Oct-18 13:23 35.920937 -115.203901 34 5022ft 125kts
11-Oct-18 13:24 35.952375 -115.184078 22 4934ft 128kts
11-Oct-18 13:25 35.987201 -115.166136 23 4315ft 132kts
11-Oct-18 13:26 36.020088 -115.147967 23 3659ft 128kts
11-Oct-18 13:27 36.050768 -115.129747 23 3203ft 103kts
11-Oct-18 13:28 36.074392 -115.115148 23 3197ft 95kts
11-Oct-18 13:29 36.098190 -115.101238 23 3194ft 93kts
11-Oct-18 13:30 36.121611 -115.090125 359 3235ft 92kts
11-Oct-18 13:31 36.135355 -115.116845 277 3219ft 99kts
11-Oct-18 13:32 36.117880 -115.145866 212 2728ft 107kts
11-Oct-18 13:33 36.096477 -115.158250 207 2120ft 66kts
11-Oct-18 13:34 36.089249 -115.163694 246 2129ft 15kts
11-Oct-18 13:35 36.086884 -115.165272 205 2140ft 10kts
11-Oct-18 13:36 36.083444 -115.167285 205 2155ft 15kts
11-Oct-18 13:37 36.085623 -115.166874 23 2149ft 19kts
11-Oct-18 13:38 36.091185 -115.163693 22 2123ft 24kts
11-Oct-18 13:39 36.097284 -115.160217 22 2098ft 23kts
11-Oct-18 13:40 36.100350 -115.159088 308 2090ft 1kts
11-Oct-18 13:41 36.100405 -115.159548 255 2092ft 0kts
11-Oct-18 13:42 36.100405 -115.159548 255 2092ft 0kts
11-Oct-18 13:43 36.100405 -115.159548 255 2092ft 0kts
11-Oct-18 13:44 36.100405 -115.159548 255 2092ft 0kts

Navigation Log

Ident Type
Flight plan parsing failed, navigation log unavailable